createdAt,value
2019-02-07T00:00:27.796Z,12.37
2019-02-07T00:05:23.685Z,12.43
2019-02-07T00:10:19.975Z,11.60
2019-02-07T00:15:16.064Z,11.47
2019-02-07T00:20:15.025Z,12.60
2019-02-07T00:25:10.936Z,11.77
2019-02-07T00:30:10.542Z,10.70
2019-02-07T00:35:08.534Z,10.70
2019-02-07T00:40:10.442Z,11.83
2019-02-07T00:45:09.133Z,9.97
2019-02-07T00:50:07.925Z,9.50
2019-02-07T00:55:07.320Z,8.60
2019-02-07T01:00:15.892Z,10.03
2019-02-07T01:05:12.785Z,10.10
2019-02-07T01:10:11.554Z,10.07
2019-02-07T01:15:09.798Z,10.10
2019-02-07T01:20:11.720Z,9.03
2019-02-07T01:25:10.810Z,9.67
2019-02-07T01:30:10.310Z,9.47
2019-02-07T01:35:07.395Z,8.90
2019-02-07T01:40:10.208Z,8.50
2019-02-07T01:45:13.156Z,9.00
2019-02-07T01:50:10.288Z,9.10
2019-02-07T01:55:06.302Z,9.50
2019-02-07T02:00:07.803Z,10.03
2019-02-07T02:05:05.260Z,8.70
2019-02-07T02:10:01.523Z,9.10
2019-02-07T02:14:57.506Z,10.23
2019-02-07T02:19:53.479Z,9.97
2019-02-07T02:24:49.457Z,9.50
2019-02-07T02:29:46.411Z,9.87
2019-02-07T02:34:42.931Z,9.30
2019-02-07T02:39:39.449Z,9.37
2019-02-07T02:44:35.393Z,9.53
2019-02-07T02:49:31.394Z,10.73
2019-02-07T02:54:36.091Z,11.00
2019-02-07T02:59:32.034Z,12.23
2019-02-07T03:04:29.924Z,11.60
2019-02-07T03:09:45.945Z,11.40
2019-02-07T03:14:46.256Z,9.80
2019-02-07T03:20:00.777Z,11.83
2019-02-07T03:25:15.179Z,10.20
2019-02-07T03:30:22.113Z,10.43
2019-02-07T03:35:22.631Z,11.50
2019-02-07T03:40:32.231Z,10.17
2019-02-07T03:45:32.799Z,11.00
2019-02-07T03:50:47.645Z,11.40
2019-02-07T03:55:45.444Z,11.33
2019-02-07T04:00:43.361Z,10.13
2019-02-07T04:05:59.566Z,11.47
2019-02-07T04:11:09.645Z,10.83
2019-02-07T04:16:17.084Z,11.83
2019-02-07T04:21:29.896Z,11.23
2019-02-07T04:26:33.305Z,10.80
2019-02-07T04:31:34.177Z,10.13
2019-02-07T04:36:48.804Z,11.20
2019-02-07T04:41:49.917Z,10.13
2019-02-07T04:47:04.152Z,10.37
2019-02-07T04:52:11.018Z,10.70
2019-02-07T04:57:15.121Z,9.47
2019-02-07T05:02:18.709Z,8.80
2019-02-07T05:07:16.513Z,9.67
2019-02-07T05:12:14.307Z,7.33
2019-02-07T05:17:27.248Z,7.67
2019-02-07T05:22:25.036Z,8.63
2019-02-07T05:27:34.924Z,10.30
2019-02-07T05:32:37.803Z,9.57
2019-02-07T05:37:35.602Z,8.83
2019-02-07T05:42:33.403Z,8.67
2019-02-07T05:47:36.998Z,9.53
2019-02-07T05:52:34.795Z,9.30
2019-02-07T05:57:41.366Z,10.37
2019-02-07T06:02:39.161Z,11.20
2019-02-07T06:07:39.755Z,10.27
2019-02-07T06:12:46.901Z,11.67
2019-02-07T06:17:44.691Z,10.97
2019-02-07T06:22:57.837Z,11.87
2019-02-07T06:27:55.632Z,11.40
2019-02-07T06:32:53.517Z,11.33
2019-02-07T06:37:54.370Z,12.43
2019-02-07T06:42:52.171Z,11.63
2019-02-07T06:47:53.221Z,11.87
2019-02-07T06:52:51.021Z,11.70
2019-02-07T06:57:51.598Z,11.60
2019-02-07T07:02:49.381Z,11.60
2019-02-07T07:07:49.720Z,11.57
2019-02-07T07:12:47.632Z,12.17
2019-02-07T07:17:51.319Z,11.63
2019-02-07T07:23:05.998Z,11.10
2019-02-07T07:28:09.850Z,10.60
2019-02-07T07:33:07.640Z,12.33
2019-02-07T07:38:05.538Z,13.37
2019-02-07T07:43:12.015Z,12.53
2019-02-07T07:48:09.911Z,13.27
2019-02-07T07:53:24.773Z,11.57
2019-02-07T07:58:39.456Z,12.80
2019-02-07T08:03:43.194Z,11.27
2019-02-07T08:08:49.692Z,12.10
2019-02-07T08:13:47.484Z,11.37
2019-02-07T08:18:48.274Z,12.97
2019-02-07T08:24:06.809Z,10.50
2019-02-07T08:29:07.702Z,10.03
2019-02-07T08:34:09.364Z,9.13
2019-02-07T08:39:22.304Z,9.30
2019-02-07T08:44:23.125Z,7.73
2019-02-07T08:49:21.026Z,8.73
2019-02-07T08:54:37.399Z,8.07
2019-02-07T08:59:35.261Z,7.53
2019-02-07T09:04:33.457Z,6.77
2019-02-07T09:14:41.501Z,7.23
2019-02-07T09:19:39.287Z,8.03
2019-02-07T09:24:39.939Z,8.10
2019-02-07T09:29:37.711Z,8.33
2019-02-07T09:34:39.980Z,7.27
2019-02-07T09:39:41.404Z,8.00
2019-02-07T09:44:45.639Z,7.27
2019-02-07T09:50:00.657Z,7.17
2019-02-07T09:55:13.932Z,8.20
2019-02-07T10:00:15.110Z,7.77
2019-02-07T10:05:28.574Z,7.73
2019-02-07T10:10:38.438Z,8.50
2019-02-07T10:15:45.539Z,9.60
2019-02-07T10:20:46.181Z,10.50
2019-02-07T10:25:51.358Z,10.33
2019-02-07T10:31:07.828Z,10.47
2019-02-07T10:36:05.728Z,8.30
2019-02-07T10:41:05.766Z,7.00
2019-02-07T10:46:06.374Z,8.00
2019-02-07T10:51:10.149Z,8.10
2019-02-07T10:56:16.888Z,7.00
2019-02-07T11:01:20.572Z,8.43
2019-02-07T11:06:30.177Z,8.00
2019-02-07T11:11:28.154Z,3.67
2019-02-07T11:16:25.932Z,5.20
2019-02-07T11:21:38.773Z,3.10
2019-02-07T11:26:39.116Z,5.00
2019-02-07T11:31:52.069Z,4.43
2019-02-07T11:37:02.222Z,5.43
2019-02-07T11:42:05.863Z,6.70
2019-02-07T11:47:21.115Z,5.57
2019-02-07T11:52:24.730Z,4.63
2019-02-07T11:57:25.569Z,5.70
2019-02-07T12:02:26.802Z,6.53
2019-02-07T12:07:39.728Z,5.60
2019-02-07T12:12:46.106Z,3.90
2019-02-07T12:17:47.050Z,3.10
2019-02-07T12:22:56.481Z,3.03
2019-02-07T12:27:57.207Z,3.47
2019-02-07T12:33:01.448Z,2.27
2019-02-07T12:38:00.283Z,2.53
2019-02-07T12:42:58.273Z,3.57
2019-02-07T12:47:58.637Z,2.33
2019-02-07T12:53:13.309Z,3.63
2019-02-07T12:58:20.187Z,3.60
2019-02-07T13:03:36.242Z,2.63
2019-02-07T13:08:46.245Z,2.87
2019-02-07T13:13:50.074Z,3.60
2019-02-07T13:19:04.514Z,2.67
2019-02-07T13:24:18.257Z,3.33
2019-02-07T13:29:21.903Z,2.97
2019-02-07T13:34:19.743Z,3.07
2019-02-07T13:39:23.400Z,3.17
2019-02-07T13:44:30.453Z,2.97
2019-02-07T13:49:51.995Z,3.80
2019-02-07T13:54:47.843Z,3.33
2019-02-07T13:59:45.744Z,2.70
2019-02-07T14:04:49.523Z,3.30
2019-02-07T14:09:56.445Z,2.80
2019-02-07T14:15:03.254Z,2.63
2019-02-07T14:20:03.928Z,2.30
2019-02-07T14:25:14.074Z,3.07
2019-02-07T14:30:13.293Z,3.53
2019-02-07T14:35:17.825Z,3.70
2019-02-07T14:40:15.802Z,2.47
2019-02-07T14:45:31.502Z,3.63
2019-02-07T14:50:27.663Z,3.30
2019-02-07T14:55:23.555Z,3.80
2019-02-07T15:00:22.455Z,3.67
2019-02-07T15:05:18.442Z,2.40
2019-02-07T15:10:20.056Z,3.23
2019-02-07T15:15:19.065Z,1.93
2019-02-07T15:20:25.501Z,2.60
2019-02-07T15:25:13.249Z,2.27
2019-02-07T15:30:12.634Z,2.63
2019-02-07T15:35:21.314Z,3.20
2019-02-07T15:40:20.321Z,2.77
2019-02-07T15:45:16.609Z,2.17
2019-02-07T15:50:16.014Z,3.03
2019-02-07T15:55:12.307Z,2.23
2019-02-07T16:00:13.912Z,2.23
2019-02-07T16:05:11.606Z,2.30
2019-02-07T16:10:11.005Z,2.83
2019-02-07T16:15:09.633Z,2.70
2019-02-07T16:20:10.266Z,2.30
2019-02-07T16:25:12.799Z,2.40
2019-02-07T16:30:13.680Z,2.37
2019-02-07T16:35:12.566Z,3.53
2019-02-07T16:40:11.069Z,2.37
2019-02-07T16:45:16.467Z,2.00
2019-02-07T16:50:19.212Z,2.07
2019-02-07T16:55:16.264Z,2.80
2019-02-07T17:00:18.884Z,2.20
2019-02-07T17:05:16.380Z,2.13
2019-02-07T17:10:18.557Z,2.73
2019-02-07T17:15:16.357Z,1.97
2019-02-07T17:20:25.118Z,2.13
2019-02-07T17:25:21.355Z,2.30
2019-02-07T17:30:41.793Z,2.47
2019-02-07T17:35:37.860Z,2.90
2019-02-07T17:40:33.753Z,2.30
2019-02-07T17:45:30.598Z,2.33
2019-02-07T17:50:35.075Z,1.90
2019-02-07T17:55:31.076Z,2.47
2019-02-07T18:00:47.945Z,2.30
2019-02-07T18:05:43.924Z,0.60
2019-02-07T18:10:40.115Z,1.27
2019-02-07T18:15:36.310Z,1.53
2019-02-07T18:20:32.396Z,1.40
2019-02-07T18:25:28.280Z,1.57
2019-02-07T18:30:24.334Z,1.47
2019-02-07T18:35:20.324Z,1.60
2019-02-07T18:40:22.477Z,1.57
2019-02-07T18:45:19.565Z,1.70
2019-02-07T18:50:22.263Z,1.03
2019-02-07T18:55:18.249Z,1.53
2019-02-07T19:00:26.149Z,2.30
2019-02-07T19:05:22.437Z,2.17
2019-02-07T19:10:20.453Z,2.33
2019-02-07T19:15:37.571Z,2.40
2019-02-07T19:20:33.460Z,2.17
2019-02-07T19:25:29.450Z,2.07
2019-02-07T19:30:30.405Z,1.80
2019-02-07T19:35:26.489Z,2.67
2019-02-07T19:40:22.503Z,2.80
2019-02-07T19:45:20.689Z,2.17
2019-02-07T19:50:19.580Z,2.23
2019-02-07T19:55:17.478Z,1.97
2019-02-07T20:00:16.779Z,1.67
2019-02-07T20:05:12.964Z,1.20
2019-02-07T20:10:14.610Z,1.27
2019-02-07T20:15:17.102Z,1.60
2019-02-07T20:20:14.467Z,1.70
2019-02-07T20:25:11.855Z,2.10
2019-02-07T20:30:14.691Z,2.17
2019-02-07T20:35:10.983Z,2.60
2019-02-07T20:40:10.692Z,1.90
2019-02-07T20:45:09.785Z,2.93
2019-02-07T20:50:15.426Z,2.40
2019-02-07T20:55:11.614Z,2.50
2019-02-07T21:00:18.020Z,2.37
2019-02-07T21:05:15.813Z,1.87
2019-02-07T21:10:17.982Z,1.73
2019-02-07T21:15:18.803Z,1.17
2019-02-07T21:20:16.882Z,2.40
2019-02-07T21:25:18.176Z,1.60
2019-02-07T21:30:17.877Z,2.00
2019-02-07T21:35:16.855Z,1.10
2019-02-07T21:40:16.018Z,2.00
2019-02-07T21:45:14.300Z,1.73
2019-02-07T21:50:15.787Z,1.97
2019-02-07T21:55:14.376Z,2.37
2019-02-07T22:00:14.075Z,1.83
2019-02-07T22:05:10.061Z,1.90
2019-02-07T22:10:09.154Z,2.33
2019-02-07T22:15:08.852Z,2.87
2019-02-07T22:20:13.449Z,1.50
2019-02-07T22:25:10.033Z,3.20
2019-02-07T22:30:15.017Z,2.80
2019-02-07T22:35:11.706Z,1.27
2019-02-07T22:40:11.099Z,1.77
2019-02-07T22:45:10.168Z,2.90
2019-02-07T22:50:09.862Z,2.67
2019-02-07T22:55:07.548Z,1.43
2019-02-07T23:00:30.919Z,2.80
2019-02-07T23:05:26.803Z,1.03
2019-02-07T23:10:22.817Z,1.00
2019-02-07T23:15:18.836Z,1.10
2019-02-07T23:20:15.085Z,1.63
2019-02-07T23:25:11.214Z,2.40
2019-02-07T23:30:13.430Z,2.90
2019-02-07T23:35:10.115Z,1.97
2019-02-07T23:40:17.551Z,1.50
2019-02-07T23:45:15.638Z,2.17
2019-02-07T23:50:11.914Z,2.00
2019-02-07T23:55:09.706Z,2.00
